CheckWX is a tool to help pilots better visualize weather data.  It is not intended as a substitute for an official pre-flight weather briefing.

21:13:39 UTC

KHON METAR
Huron Regional Airport
Huron, South Dakota, USA
Current

19 mins ago

KHON 232055Z AUTO 01004KT 10SM OVC036 14/07 A3012 RMK AO2 SLP204 T01390072 51011
Observed
May-23 @ 20:55 UTC
Wind
  • 010° at 4 KTS
Visibility
10 SM
Flight Rules
VFR
Cloud Levels
  • Overcast at 3,600' AGL
Temperature
14°C / 57°F
Dewpoint
C / 45°F
Humidity
63%
Altimeter
30.12" Hg
Pressure
1020.02 hPa
Previous

1 hour ago

KHON 231955Z AUTO 35005KT 10SM OVC043 14/08 A3011 RMK AO2 SLP200 T01390078
Observed
May-23 @ 19:55 UTC
Wind
  • 350° at 5 KTS
Visibility
10 SM
Flight Rules
VFR
Cloud Levels
  • Overcast at 4,300' AGL
Temperature
14°C / 57°F
Dewpoint
C / 46°F
Humidity
67%
Altimeter
30.11" Hg
Pressure
1019.62 hPa
Previous

2 hours ago

KHON 231855Z AUTO 33008KT 10SM FEW031 OVC042 14/07 A3011 RMK AO2 SLP198 T01390072
Observed
May-23 @ 18:55 UTC
Wind
  • 330° at 8 KTS
Visibility
10 SM
Flight Rules
VFR
Cloud Levels
  • Few at 3,100' AGL
  • Overcast at 4,200' AGL
Temperature
14°C / 57°F
Dewpoint
C / 45°F
Humidity
63%
Altimeter
30.11" Hg
Pressure
1019.62 hPa